Station: Leigh Creek  

  Atmospheric Gas Attenuation - ITU Rec 676-11   ----------------- dB/100km -----------------
Date Time Temp RH % AH g/m3 Dew Point Wind Direction Speed kph Gust kph Barometer mB Rainfall Since 9am 24GHz 47GHz 76GHz 122GHz 134GHz 241GHz
02/09 20:10 17.3 58 8.54 9 15 17 1017.2 0 19.3 25.0 38.0 99.7 93.6 322.2
02/09 20:00 17.5 58 8.65 9.2 15 19 1017 0 19.5 25.1 38.3 100.6 94.8 326.2
02/09 19:50 17.5 58 8.65 9.2 13 15 1017 0 19.5 25.1 38.3 100.6 94.8 326.2
02/09 19:40 17.6 57 8.55 9 13 15 1016.9 0 19.3 24.9 37.9 99.4 93.4 321.4
02/09 19:30 17.7 57 8.6 9.1 15 17 1016.6 0 19.4 24.9 38.0 99.8 93.9 323.1
02/09 19:20 17.8 56 8.5 8.9 13 15 1016.5 0 19.2 24.7 37.6 98.6 92.5 318.3
02/09 19:10 18.1 54 8.34 8.7 15 19 1016.4 0 18.8 24.4 36.9 96.6 90.1 310.1
02/09 19:00 18.3 53 8.29 8.6 13 19 1016.2 0 18.7 24.3 36.6 95.9 89.3 307.1
02/09 18:50 18.4 54 8.49 8.9 15 19 1016.2 0 19.1 24.5 37.3 97.8 91.6 315.4
02/09 18:40 19.1 52 8.52 9 17 20 1016.1 0 19.2 24.4 37.1 97.2 91.2 313.9
02/09 18:30 19.3 54 8.96 9.8 17 22 1015.8 0 20.1 25.0 38.6 101.3 96.4 332.1
02/09 18:20 19.6 54 9.12 10 20 26 1015.8 0 20.4 25.2 39.1 102.6 98.0 337.8
02/09 18:10 19.7 56 9.51 10.7 20 26 1015.7 0 21.2 25.7 40.5 106.4 102.7 354.4
02/09 18:00 20.1 55 9.56 10.8 22 30 1015.5 0 21.3 25.7 40.5 106.3 102.8 354.8
02/09 17:50 20.4 54 9.55 10.8 19 28 1015.5 0 21.3 25.6 40.3 105.8 102.3 353.0
02/09 17:40 20.7 53 9.54 10.8 19 24 1015.3 0 21.2 25.5 40.1 105.3 101.8 351.2
02/09 17:30 20.9 50 9.11 10.1 22 26 1015.2 0 20.3 24.8 38.4 100.8 96.2 331.7
02/09 17:20 21.4 49 9.19 10.3 22 32 1015.1 0 20.5 24.7 38.4 100.9 96.6 333.1
02/09 17:10 21.8 48 9.21 10.3 24 33 1015.1 0 20.5 24.7 38.3 100.6 96.3 332.3
02/09 17:00 22 47 9.12 10.2 20 28 1014.9 0 20.3 24.5 37.9 99.5 95.0 327.6
02/09 16:50 21.9 49 9.45 10.7 20 24 1014.8 0 21.0 25.0 39.2 102.8 99.1 342.0
02/09 16:40 22 48 9.32 10.5 22 30 1014.9 0 20.7 24.8 38.6 101.4 97.4 336.0
02/09 16:30 21.8 48 9.21 10.3 22 30 1014.9 0 20.5 24.7 38.3 100.6 96.3 332.2
02/09 16:20 22 48 9.32 10.5 22 32 1014.8 0 20.7 24.8 38.6 101.4 97.4 336.0
02/09 16:10 22.5 46 9.19 10.3 24 32 1014.9 0 20.4 24.4 37.9 99.5 95.2 328.5
02/09 16:00 22.6 48 9.64 11 20 28 1014.9 0 21.4 25.1 39.5 103.8 100.5 347.1
02/09 15:50 22.5 50 9.99 11.6 20 26 1014.9 0 22.1 25.6 40.9 107.4 105.0 362.5
02/09 15:37 22 52 10.09 11.7 17 20 1015 0 22.3 25.9 41.5 109.1 106.9 369.2
02/09 15:30 21.8 51 9.78 11.2 19 26 1015 0 21.7 25.5 40.4 106.3 103.3 356.7
02/09 15:20 21.4 54 10.12 11.7 22 30 1015.2 0 22.4 26.2 41.9 110.3 108.1 373.4
02/09 15:10 22.2 51 10.01 11.6 20 30 1015.1 0 22.1 25.8 41.1 108.0 105.6 364.8
02/09 15:00 22.2 49 9.62 11 22 32 1015 0 21.3 25.2 39.6 104.1 100.8 348.0
02/09 14:50 22.9 50 10.22 11.9 22 32 1015 0 22.6 25.9 41.5 109.2 107.3 370.7
02/09 14:40 22.6 48 9.64 11 20 28 1014.9 0 21.4 25.1 39.5 103.8 100.5 347.1
02/09 14:30 22.7 47 9.5 10.8 20 28 1014.8 0 21.1 24.8 39.0 102.3 98.7 340.7
02/09 14:20 22.4 49 9.73 11.2 20 28 1014.8 0 21.6 25.3 39.9 104.9 101.9 351.8
02/09 14:10 22.5 48 9.59 10.9 20 30 1014.8 0 21.3 25.0 39.4 103.4 100.1 345.4
02/09 14:00 22.4 47 9.33 10.5 22 35 1014.7 0 20.7 24.7 38.5 101.0 97.0 334.7
02/09 13:50 23 48 9.87 11.4 19 28 1014.8 0 21.8 25.3 40.2 105.5 102.8 355.1
02/09 13:37 22.9 47 9.6 11 24 28 1014.7 0 21.3 24.9 39.2 103.0 99.7 344.1
02/09 13:30 23.1 49 10.13 11.8 19 28 1014.8 0 22.4 25.7 41.1 108.0 105.9 365.8
02/09 13:20 23.1 48 9.92 11.5 22 28 1014.9 0 21.9 25.4 40.3 105.9 103.3 356.8
02/09 13:10 23.5 46 9.73 11.2 24 32 1014.9 0 21.5 25.0 39.4 103.5 100.5 347.0
02/09 13:00 23.8 43 9.25 10.5 24 33 1014.9 0 20.5 24.2 37.5 98.5 94.4 325.7
02/09 12:50 23.8 44 9.46 10.8 26 32 1014.9 0 20.9 24.5 38.3 100.5 96.9 334.4
02/09 12:36 25 43 9.9 11.6 24 28 1014.9 0 21.8 24.8 39.3 103.3 100.6 347.7
02/09 12:30 24.9 39 8.93 10 24 30 1014.9 0 19.8 23.4 35.9 94.2 89.4 308.4
02/09 12:20 25.7 39 9.34 10.7 20 30 1014.9 0 20.6 23.8 37.0 97.1 93.2 321.8
02/09 12:10 25.4 36 8.48 9.3 17 24 1015 0 18.8 22.7 34.1 89.5 83.8 288.6
02/09 12:00 25.8 33 7.94 8.3 20 26 1015.2 0 17.7 21.9 32.2 84.2 77.4 266.2
02/09 11:50 25.8 30 7.22 6.9 24 32 1015.4 0 16.2 20.9 29.8 77.9 69.6 238.8
02/09 11:40 26.2 29 7.14 6.8 24 33 1015.5 0 16.0 20.7 29.4 76.8 68.4 234.7
02/09 11:30 25.4 29 6.83 6.1 28 37 1015.8 0 15.4 20.5 28.7 74.9 65.8 225.4
02/09 11:20 25.7 29 6.94 6.3 28 35 1015.8 0 15.6 20.6 28.9 75.6 66.7 228.7
02/09 11:10 25.4 31 7.3 7.1 28 35 1015.8 0 16.3 21.1 30.2 79.0 70.8 243.1
02/09 11:00 25.4 29 6.83 6.1 24 33 1016 0 15.4 20.5 28.7 74.9 65.8 225.4
02/09 10:50 25.2 30 6.98 6.4 28 35 1016.1 0 15.7 20.7 29.3 76.4 67.5 231.6
02/09 10:40 25 31 7.14 6.7 26 35 1016.4 0 16.0 21.0 29.9 78.0 69.4 238.3
02/09 10:30 25.4 31 7.3 7.1 24 30 1016.2 0 16.3 21.1 30.2 79.0 70.8 243.2
02/09 10:20 24.6 31 6.98 6.4 24 32 1016.4 0 15.7 20.9 29.5 77.0 68.1 233.4
02/09 10:10 24.4 32 7.12 6.6 22 30 1016.5 0 16.0 21.1 30.0 78.4 69.7 239.3
02/09 10:00 23.6 34 7.23 6.8 26 32 1016.6 0 16.3 21.4 30.7 80.2 71.7 245.9
02/09 09:50 23.6 35 7.44 7.3 22 30 1016.8 0 16.7 21.7 31.4 82.1 74.0 254.1
02/09 09:40 22.7 39 7.88 8 17 20 1016.9 0 17.7 22.6 33.2 87.0 79.8 274.4
02/09 09:30 22.5 43 8.59 9.3 15 17 1017.2 0 19.2 23.6 35.8 94.0 88.3 304.1
02/09 09:20 22.6 41 8.24 8.7 13 17 1017.4 0 18.4 23.1 34.6 90.6 84.1 289.5
02/09 09:10 21.5 41 7.73 7.7 13 17 1017.3 0 17.4 22.7 33.2 86.9 79.3 272.5
02/09 09:00 20.9 45 8.19 8.5 13 15 1017.2 0 18.4 23.5 35.1 92.0 85.3 293.5
02/09 08:50 19.4 49 8.17 8.4 11 13 1017.3 0 18.4 23.8 35.7 93.5 86.7 298.1
02/09 08:40 18.9 50 8.1 8.3 11 13 1017.4 0 18.3 23.9 35.7 93.4 86.4 297.0
02/09 08:30 18.9 49 7.94 8 13 17 1017.6 0 17.9 23.6 35.1 91.9 84.5 290.3
02/09 08:20 19.2 47 7.75 7.6 15 17 1017.6 0 17.5 23.3 34.3 89.7 81.9 281.2
02/09 08:10 19.2 48 7.91 7.9 13 15 1017.4 0 17.9 23.5 34.8 91.2 83.8 287.9
02/09 08:00 18.7 52 8.32 8.7 13 15 1017.3 0 18.8 24.2 36.6 95.8 89.3 307.2
02/09 07:50 17 61 8.83 9.4 9 9 1017.3 0 19.9 25.5 39.3 103.1 97.7 336.4
02/09 07:40 16.1 64 8.77 9.3 6 6 1017.4 0 19.8 25.7 39.5 103.7 98.1 337.5
02/09 07:30 16.3 59 8.19 8.3 2 9 1017.1 0 18.6 24.7 37.2 97.4 90.4 310.7
02/09 07:20 15.5 63 8.33 8.5 9 11 1017.1 0 18.9 25.1 38.1 99.8 93.1 320.1
02/09 07:10 15 63 8.08 8 11 11 1017 0 18.4 24.9 37.3 97.8 90.5 310.9
02/09 07:00 15.1 63 8.13 8.1 9 13 1017.1 0 18.5 24.9 37.5 98.2 91.0 312.8
02/09 06:50 15.3 62 8.1 8.1 11 13 1017.2 0 18.4 24.8 37.3 97.7 90.4 310.7
02/09 06:40 15.3 62 8.1 8.1 13 15 1017.2 0 18.4 24.8 37.3 97.7 90.4 310.7
02/09 06:30 15.4 62 8.15 8.2 15 17 1016.9 0 18.6 24.9 37.4 98.0 90.9 312.4
02/09 06:20 15.1 64 8.26 8.3 15 17 1016.9 0 18.8 25.1 38.0 99.6 92.7 318.6
02/09 06:10 16.2 58 8 7.9 11 13 1017 0 18.2 24.4 36.5 95.5 88.1 302.7
02/09 06:00 16.4 55 7.68 7.3 4 11 1017.2 0 17.5 23.9 35.2 92.1 83.9 288.1
02/09 05:50 16.9 52 7.48 7 13 15 1017.3 0 17.1 23.5 34.2 89.6 81.0 277.7
02/09 05:40 16.8 53 7.58 7.2 13 17 1017.2 0 17.3 23.6 34.6 90.6 82.3 282.3
02/09 05:30 15.7 58 7.76 7.5 11 19 1017.2 0 17.7 24.2 35.8 93.7 85.7 294.1
02/09 05:20 15.1 63 8.13 8.1 17 19 1017.3 0 18.5 24.9 37.5 98.2 91.0 312.8
02/09 05:10 16 55 7.49 7 0 0 1016.9 0 17.1 23.7 34.6 90.6 82.0 281.2
02/09 05:00 16.6 52 7.35 6.7 9 11 1016.6 0 16.8 23.3 33.8 88.5 79.6 273.1
02/09 04:50 16.3 54 7.49 7 9 11 1016.5 0 17.1 23.6 34.5 90.2 81.6 280.1
02/09 04:40 14.3 68 8.35 8.5 4 7 1016.4 0 19.0 25.5 38.7 101.5 94.8 325.8
02/09 04:30 15.7 59 7.89 7.7 0 0 1015.9 0 18.0 24.3 36.2 94.9 87.2 299.5
02/09 04:20 14.9 68 8.67 9.1 0 0 1015.7 0 19.7 25.8 39.6 104.0 98.1 337.7
02/09 04:10 14.8 71 8.99 9.6 0 0 1016 0 20.4 26.3 41.0 107.6 102.5 352.9
02/09 04:00 15 73 9.36 10.2 0 0 1016 0 21.1 26.9 42.4 111.3 107.1 369.2
02/09 03:50 15.5 69 9.12 9.8 0 0 1016.2 0 20.6 26.3 41.1 108.0 103.3 355.8
02/09 03:40 16.4 61 8.51 8.9 0 0 1016.2 0 19.3 25.1 38.3 100.4 94.3 324.3

Last Refresh: 02-Sep-2026 20:22:25

Bureau of Meteorology